sensor_id;sensor_type;location;lat;lon;timestamp;P1;durP1;ratioP1;P2;durP2;ratioP2
25810;SDS011;13645;52.460;13.910;2022-07-23T00:01:30;5.85;;;3.60;;
25810;SDS011;13645;52.460;13.910;2022-07-23T00:03:57;7.47;;;3.85;;
25810;SDS011;13645;52.460;13.910;2022-07-23T00:06:24;6.45;;;3.53;;
25810;SDS011;13645;52.460;13.910;2022-07-23T00:08:51;5.57;;;3.50;;
25810;SDS011;13645;52.460;13.910;2022-07-23T00:11:18;5.05;;;3.55;;
25810;SDS011;13645;52.460;13.910;2022-07-23T00:13:45;6.43;;;3.85;;
25810;SDS011;13645;52.460;13.910;2022-07-23T00:16:11;6.40;;;3.85;;
25810;SDS011;13645;52.460;13.910;2022-07-23T00:18:38;4.03;;;3.63;;
25810;SDS011;13645;52.460;13.910;2022-07-23T00:21:05;6.18;;;3.97;;
25810;SDS011;13645;52.460;13.910;2022-07-23T00:23:33;3.65;;;3.20;;
25810;SDS011;13645;52.460;13.910;2022-07-23T00:26:00;4.38;;;3.72;;
25810;SDS011;13645;52.460;13.910;2022-07-23T00:28:26;8.65;;;3.72;;
25810;SDS011;13645;52.460;13.910;2022-07-23T00:30:53;7.15;;;3.78;;
25810;SDS011;13645;52.460;13.910;2022-07-23T00:33:20;6.20;;;4.00;;
25810;SDS011;13645;52.460;13.910;2022-07-23T00:35:46;14.77;;;4.28;;
25810;SDS011;13645;52.460;13.910;2022-07-23T00:38:13;5.68;;;3.70;;
25810;SDS011;13645;52.460;13.910;2022-07-23T00:40:40;6.47;;;3.63;;
25810;SDS011;13645;52.460;13.910;2022-07-23T00:43:07;5.13;;;4.18;;
25810;SDS011;13645;52.460;13.910;2022-07-23T00:45:34;8.68;;;4.00;;
25810;SDS011;13645;52.460;13.910;2022-07-23T00:48:01;9.82;;;3.63;;
25810;SDS011;13645;52.460;13.910;2022-07-23T00:50:28;4.63;;;4.20;;
25810;SDS011;13645;52.460;13.910;2022-07-23T00:52:55;6.03;;;3.80;;
25810;SDS011;13645;52.460;13.910;2022-07-23T00:55:23;8.32;;;4.32;;
25810;SDS011;13645;52.460;13.910;2022-07-23T00:57:50;9.40;;;4.68;;
25810;SDS011;13645;52.460;13.910;2022-07-23T01:00:19;12.07;;;4.93;;
25810;SDS011;13645;52.460;13.910;2022-07-23T01:02:46;8.25;;;4.95;;
25810;SDS011;13645;52.460;13.910;2022-07-23T01:05:14;9.10;;;4.85;;
25810;SDS011;13645;52.460;13.910;2022-07-23T01:07:41;11.00;;;5.10;;
25810;SDS011;13645;52.460;13.910;2022-07-23T01:10:09;9.00;;;4.70;;
25810;SDS011;13645;52.460;13.910;2022-07-23T01:12:55;9.05;;;4.40;;
25810;SDS011;13645;52.460;13.910;2022-07-23T01:15:22;10.55;;;4.10;;
25810;SDS011;13645;52.460;13.910;2022-07-23T01:17:49;7.10;;;4.45;;
25810;SDS011;13645;52.460;13.910;2022-07-23T01:20:16;8.20;;;4.85;;
25810;SDS011;13645;52.460;13.910;2022-07-23T01:22:43;7.40;;;4.28;;
25810;SDS011;13645;52.460;13.910;2022-07-23T01:25:10;8.15;;;3.88;;
25810;SDS011;13645;52.460;13.910;2022-07-23T01:27:36;6.97;;;3.83;;
25810;SDS011;13645;52.460;13.910;2022-07-23T01:30:04;7.97;;;3.88;;
25810;SDS011;13645;52.460;13.910;2022-07-23T01:32:31;7.80;;;4.28;;
25810;SDS011;13645;52.460;13.910;2022-07-23T01:34:58;8.88;;;4.43;;
25810;SDS011;13645;52.460;13.910;2022-07-23T01:37:25;8.38;;;4.70;;
25810;SDS011;13645;52.460;13.910;2022-07-23T01:39:52;6.68;;;4.75;;
25810;SDS011;13645;52.460;13.910;2022-07-23T01:42:18;5.75;;;4.07;;
25810;SDS011;13645;52.460;13.910;2022-07-23T01:44:45;6.88;;;4.90;;
25810;SDS011;13645;52.460;13.910;2022-07-23T01:47:12;6.32;;;4.25;;
25810;SDS011;13645;52.460;13.910;2022-07-23T01:49:39;6.00;;;4.65;;
25810;SDS011;13645;52.460;13.910;2022-07-23T01:52:06;9.45;;;5.10;;
25810;SDS011;13645;52.460;13.910;2022-07-23T01:54:37;5.38;;;4.03;;
25810;SDS011;13645;52.460;13.910;2022-07-23T01:57:05;6.75;;;3.78;;
25810;SDS011;13645;52.460;13.910;2022-07-23T01:59:33;4.90;;;4.43;;
25810;SDS011;13645;52.460;13.910;2022-07-23T02:02:00;7.65;;;4.20;;
25810;SDS011;13645;52.460;13.910;2022-07-23T02:04:29;5.60;;;4.80;;
25810;SDS011;13645;52.460;13.910;2022-07-23T02:06:56;6.65;;;4.90;;
25810;SDS011;13645;52.460;13.910;2022-07-23T02:09:23;7.90;;;5.10;;
25810;SDS011;13645;52.460;13.910;2022-07-23T02:11:49;5.80;;;4.28;;
25810;SDS011;13645;52.460;13.910;2022-07-23T02:14:16;4.75;;;4.22;;
25810;SDS011;13645;52.460;13.910;2022-07-23T02:16:43;5.95;;;4.53;;
25810;SDS011;13645;52.460;13.910;2022-07-23T02:19:10;7.60;;;4.10;;
25810;SDS011;13645;52.460;13.910;2022-07-23T02:21:36;6.03;;;4.68;;
25810;SDS011;13645;52.460;13.910;2022-07-23T02:24:03;6.38;;;4.40;;
25810;SDS011;13645;52.460;13.910;2022-07-23T02:26:31;9.70;;;5.20;;
25810;SDS011;13645;52.460;13.910;2022-07-23T02:29:01;9.35;;;4.72;;
25810;SDS011;13645;52.460;13.910;2022-07-23T02:31:30;5.28;;;4.70;;
25810;SDS011;13645;52.460;13.910;2022-07-23T02:33:57;5.90;;;4.60;;
25810;SDS011;13645;52.460;13.910;2022-07-23T02:36:24;5.38;;;4.82;;
25810;SDS011;13645;52.460;13.910;2022-07-23T02:38:51;5.65;;;4.88;;
25810;SDS011;13645;52.460;13.910;2022-07-23T02:41:18;7.35;;;4.32;;
25810;SDS011;13645;52.460;13.910;2022-07-23T02:43:45;7.50;;;4.82;;
25810;SDS011;13645;52.460;13.910;2022-07-23T02:46:11;9.77;;;4.68;;
25810;SDS011;13645;52.460;13.910;2022-07-23T02:48:39;6.10;;;4.80;;
25810;SDS011;13645;52.460;13.910;2022-07-23T02:51:06;5.50;;;4.72;;
25810;SDS011;13645;52.460;13.910;2022-07-23T02:53:40;6.38;;;5.07;;
25810;SDS011;13645;52.460;13.910;2022-07-23T02:56:06;9.43;;;4.75;;
25810;SDS011;13645;52.460;13.910;2022-07-23T02:58:33;10.20;;;4.72;;
25810;SDS011;13645;52.460;13.910;2022-07-23T03:01:00;8.48;;;4.97;;
25810;SDS011;13645;52.460;13.910;2022-07-23T03:03:27;6.68;;;5.00;;
25810;SDS011;13645;52.460;13.910;2022-07-23T03:05:55;10.93;;;5.25;;
25810;SDS011;13645;52.460;13.910;2022-07-23T03:08:22;5.97;;;4.95;;
25810;SDS011;13645;52.460;13.910;2022-07-23T03:10:49;5.63;;;4.72;;
25810;SDS011;13645;52.460;13.910;2022-07-23T03:13:15;7.88;;;4.78;;
25810;SDS011;13645;52.460;13.910;2022-07-23T03:15:42;7.30;;;4.50;;
25810;SDS011;13645;52.460;13.910;2022-07-23T03:18:09;10.45;;;4.72;;
25810;SDS011;13645;52.460;13.910;2022-07-23T03:20:35;6.55;;;4.60;;
25810;SDS011;13645;52.460;13.910;2022-07-23T03:23:02;6.57;;;4.80;;
25810;SDS011;13645;52.460;13.910;2022-07-23T03:25:29;5.72;;;4.82;;
25810;SDS011;13645;52.460;13.910;2022-07-23T03:27:56;7.22;;;4.63;;
25810;SDS011;13645;52.460;13.910;2022-07-23T03:30:23;5.03;;;4.20;;
25810;SDS011;13645;52.460;13.910;2022-07-23T03:32:49;5.32;;;4.57;;
25810;SDS011;13645;52.460;13.910;2022-07-23T03:35:16;6.20;;;5.00;;
25810;SDS011;13645;52.460;13.910;2022-07-23T03:37:44;6.22;;;4.70;;
25810;SDS011;13645;52.460;13.910;2022-07-23T03:40:12;5.50;;;4.82;;
25810;SDS011;13645;52.460;13.910;2022-07-23T03:42:39;5.40;;;4.68;;
25810;SDS011;13645;52.460;13.910;2022-07-23T03:45:07;11.30;;;5.10;;
25810;SDS011;13645;52.460;13.910;2022-07-23T03:47:34;7.90;;;5.07;;
25810;SDS011;13645;52.460;13.910;2022-07-23T03:50:01;7.05;;;4.75;;
25810;SDS011;13645;52.460;13.910;2022-07-23T03:52:28;7.28;;;5.60;;
25810;SDS011;13645;52.460;13.910;2022-07-23T03:54:55;9.90;;;5.78;;
25810;SDS011;13645;52.460;13.910;2022-07-23T03:57:22;9.38;;;5.60;;
25810;SDS011;13645;52.460;13.910;2022-07-23T03:59:48;7.82;;;5.70;;
25810;SDS011;13645;52.460;13.910;2022-07-23T04:02:15;11.05;;;5.88;;
25810;SDS011;13645;52.460;13.910;2022-07-23T04:04:42;7.35;;;5.80;;
25810;SDS011;13645;52.460;13.910;2022-07-23T04:07:09;10.18;;;6.38;;
25810;SDS011;13645;52.460;13.910;2022-07-23T04:09:35;12.23;;;6.47;;
25810;SDS011;13645;52.460;13.910;2022-07-23T04:12:02;9.38;;;6.78;;
25810;SDS011;13645;52.460;13.910;2022-07-23T04:14:29;11.43;;;6.95;;
25810;SDS011;13645;52.460;13.910;2022-07-23T04:16:56;10.27;;;6.30;;
25810;SDS011;13645;52.460;13.910;2022-07-23T04:19:23;13.88;;;7.07;;
25810;SDS011;13645;52.460;13.910;2022-07-23T04:21:49;12.38;;;6.22;;
25810;SDS011;13645;52.460;13.910;2022-07-23T04:24:17;11.68;;;6.45;;
25810;SDS011;13645;52.460;13.910;2022-07-23T04:26:44;10.73;;;6.22;;
25810;SDS011;13645;52.460;13.910;2022-07-23T04:29:11;9.68;;;5.93;;
25810;SDS011;13645;52.460;13.910;2022-07-23T04:31:38;10.43;;;6.00;;
25810;SDS011;13645;52.460;13.910;2022-07-23T04:34:04;7.65;;;5.97;;
25810;SDS011;13645;52.460;13.910;2022-07-23T04:36:31;10.18;;;6.50;;
25810;SDS011;13645;52.460;13.910;2022-07-23T04:38:58;10.40;;;6.43;;
25810;SDS011;13645;52.460;13.910;2022-07-23T04:41:25;8.68;;;5.75;;
25810;SDS011;13645;52.460;13.910;2022-07-23T04:43:51;9.20;;;5.95;;
25810;SDS011;13645;52.460;13.910;2022-07-23T04:46:18;10.68;;;6.20;;
25810;SDS011;13645;52.460;13.910;2022-07-23T04:48:45;10.80;;;6.20;;
25810;SDS011;13645;52.460;13.910;2022-07-23T04:51:12;9.00;;;6.15;;
25810;SDS011;13645;52.460;13.910;2022-07-23T04:53:39;12.32;;;6.28;;
25810;SDS011;13645;52.460;13.910;2022-07-23T04:56:05;8.98;;;6.45;;
25810;SDS011;13645;52.460;13.910;2022-07-23T04:58:32;10.80;;;6.70;;
25810;SDS011;13645;52.460;13.910;2022-07-23T05:00:59;12.55;;;6.28;;
25810;SDS011;13645;52.460;13.910;2022-07-23T05:03:26;8.80;;;6.28;;
25810;SDS011;13645;52.460;13.910;2022-07-23T05:05:53;8.73;;;6.18;;
25810;SDS011;13645;52.460;13.910;2022-07-23T05:08:20;17.55;;;7.18;;
25810;SDS011;13645;52.460;13.910;2022-07-23T05:10:47;10.43;;;6.57;;
25810;SDS011;13645;52.460;13.910;2022-07-23T05:13:14;11.60;;;7.07;;
25810;SDS011;13645;52.460;13.910;2022-07-23T05:15:42;14.07;;;7.20;;
25810;SDS011;13645;52.460;13.910;2022-07-23T05:18:09;11.80;;;6.40;;
25810;SDS011;13645;52.460;13.910;2022-07-23T05:20:36;14.65;;;7.03;;
25810;SDS011;13645;52.460;13.910;2022-07-23T05:23:03;13.05;;;6.47;;
25810;SDS011;13645;52.460;13.910;2022-07-23T05:25:30;13.23;;;6.70;;
25810;SDS011;13645;52.460;13.910;2022-07-23T05:27:56;10.88;;;7.63;;
25810;SDS011;13645;52.460;13.910;2022-07-23T05:30:23;11.63;;;7.20;;
25810;SDS011;13645;52.460;13.910;2022-07-23T05:32:50;10.73;;;6.85;;
25810;SDS011;13645;52.460;13.910;2022-07-23T05:35:16;13.43;;;7.13;;
25810;SDS011;13645;52.460;13.910;2022-07-23T05:37:43;14.45;;;7.90;;
25810;SDS011;13645;52.460;13.910;2022-07-23T05:40:10;10.82;;;7.68;;
25810;SDS011;13645;52.460;13.910;2022-07-23T05:42:38;14.32;;;7.55;;
25810;SDS011;13645;52.460;13.910;2022-07-23T05:45:05;14.45;;;8.07;;
25810;SDS011;13645;52.460;13.910;2022-07-23T05:47:42;13.82;;;7.95;;
25810;SDS011;13645;52.460;13.910;2022-07-23T05:50:11;12.77;;;7.72;;
25810;SDS011;13645;52.460;13.910;2022-07-23T05:52:38;9.40;;;7.32;;
25810;SDS011;13645;52.460;13.910;2022-07-23T05:55:06;13.45;;;8.10;;
25810;SDS011;13645;52.460;13.910;2022-07-23T05:57:33;11.65;;;7.75;;
25810;SDS011;13645;52.460;13.910;2022-07-23T06:00:01;10.88;;;7.22;;
25810;SDS011;13645;52.460;13.910;2022-07-23T06:02:29;11.15;;;7.68;;
25810;SDS011;13645;52.460;13.910;2022-07-23T06:04:56;10.60;;;8.10;;
25810;SDS011;13645;52.460;13.910;2022-07-23T06:07:23;9.38;;;7.28;;
25810;SDS011;13645;52.460;13.910;2022-07-23T06:09:49;14.82;;;8.38;;
25810;SDS011;13645;52.460;13.910;2022-07-23T06:12:16;15.73;;;8.40;;
25810;SDS011;13645;52.460;13.910;2022-07-23T06:14:43;21.27;;;10.50;;
25810;SDS011;13645;52.460;13.910;2022-07-23T06:17:10;16.05;;;6.25;;
25810;SDS011;13645;52.460;13.910;2022-07-23T06:19:37;9.90;;;5.43;;
25810;SDS011;13645;52.460;13.910;2022-07-23T06:22:04;10.90;;;4.65;;
25810;SDS011;13645;52.460;13.910;2022-07-23T06:24:30;10.23;;;5.25;;
25810;SDS011;13645;52.460;13.910;2022-07-23T06:26:57;14.07;;;5.70;;
25810;SDS011;13645;52.460;13.910;2022-07-23T06:29:24;13.48;;;5.68;;
25810;SDS011;13645;52.460;13.910;2022-07-23T06:31:51;10.32;;;5.47;;
25810;SDS011;13645;52.460;13.910;2022-07-23T06:34:17;10.85;;;5.45;;
25810;SDS011;13645;52.460;13.910;2022-07-23T06:36:44;10.40;;;5.43;;
25810;SDS011;13645;52.460;13.910;2022-07-23T06:39:11;12.90;;;5.43;;
25810;SDS011;13645;52.460;13.910;2022-07-23T06:41:39;10.65;;;5.55;;
25810;SDS011;13645;52.460;13.910;2022-07-23T06:44:05;14.10;;;5.32;;
25810;SDS011;13645;52.460;13.910;2022-07-23T06:46:32;11.30;;;5.05;;
25810;SDS011;13645;52.460;13.910;2022-07-23T06:48:59;9.30;;;4.78;;
25810;SDS011;13645;52.460;13.910;2022-07-23T06:51:27;10.48;;;5.00;;
25810;SDS011;13645;52.460;13.910;2022-07-23T06:53:53;14.25;;;5.57;;
25810;SDS011;13645;52.460;13.910;2022-07-23T06:56:20;12.25;;;4.60;;
25810;SDS011;13645;52.460;13.910;2022-07-23T06:58:47;13.45;;;7.47;;
25810;SDS011;13645;52.460;13.910;2022-07-23T07:01:14;12.50;;;5.65;;
25810;SDS011;13645;52.460;13.910;2022-07-23T07:03:40;7.68;;;5.60;;
25810;SDS011;13645;52.460;13.910;2022-07-23T07:06:07;11.98;;;5.50;;
25810;SDS011;13645;52.460;13.910;2022-07-23T07:08:34;10.93;;;5.45;;
25810;SDS011;13645;52.460;13.910;2022-07-23T07:11:01;11.48;;;5.72;;
25810;SDS011;13645;52.460;13.910;2022-07-23T07:13:28;11.57;;;5.47;;
25810;SDS011;13645;52.460;13.910;2022-07-23T07:15:55;21.27;;;10.48;;
25810;SDS011;13645;52.460;13.910;2022-07-23T07:18:21;30.42;;;15.45;;
25810;SDS011;13645;52.460;13.910;2022-07-23T07:20:48;14.45;;;6.28;;
25810;SDS011;13645;52.460;13.910;2022-07-23T07:23:16;7.93;;;4.68;;
25810;SDS011;13645;52.460;13.910;2022-07-23T07:25:42;9.75;;;4.95;;
25810;SDS011;13645;52.460;13.910;2022-07-23T07:28:09;13.00;;;5.20;;
25810;SDS011;13645;52.460;13.910;2022-07-23T07:30:36;13.40;;;5.03;;
25810;SDS011;13645;52.460;13.910;2022-07-23T07:33:03;13.13;;;4.95;;
25810;SDS011;13645;52.460;13.910;2022-07-23T07:35:29;11.07;;;5.13;;
25810;SDS011;13645;52.460;13.910;2022-07-23T07:37:59;10.75;;;5.00;;
25810;SDS011;13645;52.460;13.910;2022-07-23T07:40:26;16.23;;;5.13;;
25810;SDS011;13645;52.460;13.910;2022-07-23T07:42:59;11.27;;;5.60;;
25810;SDS011;13645;52.460;13.910;2022-07-23T07:45:27;9.88;;;5.07;;
25810;SDS011;13645;52.460;13.910;2022-07-23T07:47:54;10.48;;;4.57;;
25810;SDS011;13645;52.460;13.910;2022-07-23T07:50:21;10.02;;;4.55;;
25810;SDS011;13645;52.460;13.910;2022-07-23T07:52:48;11.75;;;5.03;;
25810;SDS011;13645;52.460;13.910;2022-07-23T07:55:15;8.50;;;4.85;;
25810;SDS011;13645;52.460;13.910;2022-07-23T07:57:43;10.57;;;4.53;;
25810;SDS011;13645;52.460;13.910;2022-07-23T08:00:14;11.20;;;4.32;;
25810;SDS011;13645;52.460;13.910;2022-07-23T08:02:51;8.30;;;4.63;;
25810;SDS011;13645;52.460;13.910;2022-07-23T08:05:23;8.35;;;4.65;;
25810;SDS011;13645;52.460;13.910;2022-07-23T08:07:54;8.05;;;4.28;;
25810;SDS011;13645;52.460;13.910;2022-07-23T08:10:22;8.45;;;4.80;;
25810;SDS011;13645;52.460;13.910;2022-07-23T08:12:51;12.10;;;4.82;;
25810;SDS011;13645;52.460;13.910;2022-07-23T08:15:26;13.02;;;4.80;;
25810;SDS011;13645;52.460;13.910;2022-07-23T08:17:55;11.32;;;5.18;;
25810;SDS011;13645;52.460;13.910;2022-07-23T08:20:23;9.98;;;5.40;;
25810;SDS011;13645;52.460;13.910;2022-07-23T08:22:54;10.77;;;5.07;;
25810;SDS011;13645;52.460;13.910;2022-07-23T08:25:23;12.32;;;5.90;;
25810;SDS011;13645;52.460;13.910;2022-07-23T08:28:09;9.90;;;5.45;;
25810;SDS011;13645;52.460;13.910;2022-07-23T08:30:37;9.25;;;5.40;;
25810;SDS011;13645;52.460;13.910;2022-07-23T08:33:06;13.15;;;6.13;;
25810;SDS011;13645;52.460;13.910;2022-07-23T08:35:56;12.35;;;5.57;;
25810;SDS011;13645;52.460;13.910;2022-07-23T08:38:24;11.43;;;5.47;;
25810;SDS011;13645;52.460;13.910;2022-07-23T08:40:55;13.13;;;5.53;;
25810;SDS011;13645;52.460;13.910;2022-07-23T08:43:24;15.13;;;5.95;;
25810;SDS011;13645;52.460;13.910;2022-07-23T08:45:56;10.05;;;5.60;;
25810;SDS011;13645;52.460;13.910;2022-07-23T08:48:26;10.55;;;5.65;;
25810;SDS011;13645;52.460;13.910;2022-07-23T08:50:58;12.55;;;5.75;;
25810;SDS011;13645;52.460;13.910;2022-07-23T08:53:27;9.02;;;5.47;;
25810;SDS011;13645;52.460;13.910;2022-07-23T08:55:56;9.93;;;4.88;;
25810;SDS011;13645;52.460;13.910;2022-07-23T08:58:25;7.90;;;4.60;;
25810;SDS011;13645;52.460;13.910;2022-07-23T09:00:54;13.65;;;4.65;;
25810;SDS011;13645;52.460;13.910;2022-07-23T09:03:24;8.23;;;4.22;;
25810;SDS011;13645;52.460;13.910;2022-07-23T09:05:52;8.55;;;3.78;;
25810;SDS011;13645;52.460;13.910;2022-07-23T09:08:23;9.23;;;4.53;;
25810;SDS011;13645;52.460;13.910;2022-07-23T09:10:55;10.88;;;3.70;;
25810;SDS011;13645;52.460;13.910;2022-07-23T09:13:25;10.02;;;4.38;;
25810;SDS011;13645;52.460;13.910;2022-07-23T09:15:55;7.95;;;3.85;;
25810;SDS011;13645;52.460;13.910;2022-07-23T09:18:57;9.57;;;3.65;;
25810;SDS011;13645;52.460;13.910;2022-07-23T09:21:27;8.45;;;3.75;;
25810;SDS011;13645;52.460;13.910;2022-07-23T09:24:25;8.13;;;3.63;;
25810;SDS011;13645;52.460;13.910;2022-07-23T09:27:16;7.05;;;3.90;;
25810;SDS011;13645;52.460;13.910;2022-07-23T09:30:07;7.82;;;3.97;;
25810;SDS011;13645;52.460;13.910;2022-07-23T09:36:27;9.88;;;3.78;;
25810;SDS011;13645;52.460;13.910;2022-07-23T09:39:45;7.85;;;3.97;;
25810;SDS011;13645;52.460;13.910;2022-07-23T09:43:03;10.27;;;3.60;;
25810;SDS011;13645;52.460;13.910;2022-07-23T09:46:21;7.65;;;3.70;;
25810;SDS011;13645;52.460;13.910;2022-07-23T09:49:38;5.88;;;3.45;;
25810;SDS011;13645;52.460;13.910;2022-07-23T09:52:54;11.10;;;3.25;;
25810;SDS011;13645;52.460;13.910;2022-07-23T09:56:11;11.38;;;3.67;;
25810;SDS011;13645;52.460;13.910;2022-07-23T09:59:30;7.55;;;3.67;;
25810;SDS011;13645;52.460;13.910;2022-07-23T10:03:13;7.25;;;3.65;;
25810;SDS011;13645;52.460;13.910;2022-07-23T10:06:30;9.40;;;3.22;;
25810;SDS011;13645;52.460;13.910;2022-07-23T10:09:46;7.65;;;3.45;;
25810;SDS011;13645;52.460;13.910;2022-07-23T10:13:03;5.75;;;2.63;;
25810;SDS011;13645;52.460;13.910;2022-07-23T10:16:20;8.20;;;2.75;;
25810;SDS011;13645;52.460;13.910;2022-07-23T10:19:36;9.73;;;3.53;;
25810;SDS011;13645;52.460;13.910;2022-07-23T10:23:05;6.60;;;2.80;;
25810;SDS011;13645;52.460;13.910;2022-07-23T10:26:41;7.47;;;3.00;;
25810;SDS011;13645;52.460;13.910;2022-07-23T10:37:39;13.00;;;2.90;;
25810;SDS011;13645;52.460;13.910;2022-07-23T10:41:00;8.45;;;3.70;;
25810;SDS011;13645;52.460;13.910;2022-07-23T10:44:18;9.68;;;3.72;;
25810;SDS011;13645;52.460;13.910;2022-07-23T10:47:36;14.73;;;3.65;;
25810;SDS011;13645;52.460;13.910;2022-07-23T10:51:11;10.48;;;3.20;;
25810;SDS011;13645;52.460;13.910;2022-07-23T10:54:29;6.28;;;3.00;;
25810;SDS011;13645;52.460;13.910;2022-07-23T10:57:49;5.93;;;2.83;;
25810;SDS011;13645;52.460;13.910;2022-07-23T11:01:30;8.32;;;3.45;;
25810;SDS011;13645;52.460;13.910;2022-07-23T11:04:48;29.05;;;4.18;;
25810;SDS011;13645;52.460;13.910;2022-07-23T11:11:20;8.18;;;2.80;;
25810;SDS011;13645;52.460;13.910;2022-07-23T11:18:40;7.28;;;3.08;;
25810;SDS011;13645;52.460;13.910;2022-07-23T11:22:00;11.48;;;3.85;;
25810;SDS011;13645;52.460;13.910;2022-07-23T11:28:37;9.15;;;3.35;;
25810;SDS011;13645;52.460;13.910;2022-07-23T11:32:37;8.75;;;3.47;;
25810;SDS011;13645;52.460;13.910;2022-07-23T11:35:44;11.50;;;3.50;;
25810;SDS011;13645;52.460;13.910;2022-07-23T11:39:02;4.45;;;2.20;;
25810;SDS011;13645;52.460;13.910;2022-07-23T11:46:13;6.75;;;2.92;;
25810;SDS011;13645;52.460;13.910;2022-07-23T11:49:29;9.23;;;3.08;;
25810;SDS011;13645;52.460;13.910;2022-07-23T11:52:46;7.50;;;2.80;;
25810;SDS011;13645;52.460;13.910;2022-07-23T11:56:03;6.75;;;3.05;;
25810;SDS011;13645;52.460;13.910;2022-07-23T11:59:31;9.13;;;2.95;;
25810;SDS011;13645;52.460;13.910;2022-07-23T12:02:52;6.05;;;2.72;;
25810;SDS011;13645;52.460;13.910;2022-07-23T12:06:10;5.20;;;2.30;;
25810;SDS011;13645;52.460;13.910;2022-07-23T12:09:26;6.13;;;3.00;;
25810;SDS011;13645;52.460;13.910;2022-07-23T12:12:44;6.68;;;2.60;;
25810;SDS011;13645;52.460;13.910;2022-07-23T12:16:02;5.70;;;2.70;;
25810;SDS011;13645;52.460;13.910;2022-07-23T12:19:19;7.05;;;2.78;;
25810;SDS011;13645;52.460;13.910;2022-07-23T12:22:37;3.92;;;2.35;;
25810;SDS011;13645;52.460;13.910;2022-07-23T12:26:01;4.78;;;2.28;;
25810;SDS011;13645;52.460;13.910;2022-07-23T12:29:33;5.78;;;2.63;;
25810;SDS011;13645;52.460;13.910;2022-07-23T12:32:59;6.65;;;2.83;;
25810;SDS011;13645;52.460;13.910;2022-07-23T12:36:16;5.85;;;2.95;;
25810;SDS011;13645;52.460;13.910;2022-07-23T12:39:32;11.15;;;4.25;;
25810;SDS011;13645;52.460;13.910;2022-07-23T12:42:49;6.03;;;2.55;;
25810;SDS011;13645;52.460;13.910;2022-07-23T12:46:07;6.28;;;2.60;;
25810;SDS011;13645;52.460;13.910;2022-07-23T12:49:28;6.63;;;2.30;;
25810;SDS011;13645;52.460;13.910;2022-07-23T12:52:44;6.15;;;2.00;;
25810;SDS011;13645;52.460;13.910;2022-07-23T12:56:05;4.07;;;2.15;;
25810;SDS011;13645;52.460;13.910;2022-07-23T12:59:30;6.68;;;2.55;;
25810;SDS011;13645;52.460;13.910;2022-07-23T13:02:46;7.97;;;2.72;;
25810;SDS011;13645;52.460;13.910;2022-07-23T13:06:02;7.10;;;2.83;;
25810;SDS011;13645;52.460;13.910;2022-07-23T13:09:24;6.65;;;3.05;;
25810;SDS011;13645;52.460;13.910;2022-07-23T13:12:42;7.35;;;2.80;;
25810;SDS011;13645;52.460;13.910;2022-07-23T13:15:59;9.38;;;3.15;;
25810;SDS011;13645;52.460;13.910;2022-07-23T13:19:15;7.90;;;2.72;;
25810;SDS011;13645;52.460;13.910;2022-07-23T13:22:31;15.20;;;6.95;;
25810;SDS011;13645;52.460;13.910;2022-07-23T13:25:47;6.65;;;3.20;;
25810;SDS011;13645;52.460;13.910;2022-07-23T13:29:04;4.75;;;2.50;;
25810;SDS011;13645;52.460;13.910;2022-07-23T13:32:22;9.23;;;2.80;;
25810;SDS011;13645;52.460;13.910;2022-07-23T13:35:44;6.47;;;2.88;;
25810;SDS011;13645;52.460;13.910;2022-07-23T13:39:19;5.30;;;2.67;;
25810;SDS011;13645;52.460;13.910;2022-07-23T13:49:58;5.72;;;2.55;;
25810;SDS011;13645;52.460;13.910;2022-07-23T13:52:25;7.10;;;2.60;;
25810;SDS011;13645;52.460;13.910;2022-07-23T13:54:52;6.63;;;2.15;;
25810;SDS011;13645;52.460;13.910;2022-07-23T13:57:19;6.82;;;3.53;;
25810;SDS011;13645;52.460;13.910;2022-07-23T13:59:47;4.95;;;2.80;;
25810;SDS011;13645;52.460;13.910;2022-07-23T14:02:14;7.65;;;2.50;;
25810;SDS011;13645;52.460;13.910;2022-07-23T14:04:50;5.28;;;2.50;;
25810;SDS011;13645;52.460;13.910;2022-07-23T14:07:17;7.35;;;2.25;;
25810;SDS011;13645;52.460;13.910;2022-07-23T14:09:48;7.15;;;2.67;;
25810;SDS011;13645;52.460;13.910;2022-07-23T14:12:15;10.38;;;2.55;;
25810;SDS011;13645;52.460;13.910;2022-07-23T14:14:43;8.00;;;2.63;;
25810;SDS011;13645;52.460;13.910;2022-07-23T14:17:13;7.05;;;2.92;;
25810;SDS011;13645;52.460;13.910;2022-07-23T14:19:41;7.03;;;2.90;;
25810;SDS011;13645;52.460;13.910;2022-07-23T14:22:09;9.75;;;3.30;;
25810;SDS011;13645;52.460;13.910;2022-07-23T14:24:36;5.75;;;2.55;;
25810;SDS011;13645;52.460;13.910;2022-07-23T14:27:03;9.90;;;2.40;;
25810;SDS011;13645;52.460;13.910;2022-07-23T14:29:31;10.85;;;2.92;;
25810;SDS011;13645;52.460;13.910;2022-07-23T14:31:58;6.15;;;2.50;;
25810;SDS011;13645;52.460;13.910;2022-07-23T14:34:27;6.93;;;2.75;;
25810;SDS011;13645;52.460;13.910;2022-07-23T14:36:55;5.78;;;2.50;;
25810;SDS011;13645;52.460;13.910;2022-07-23T14:39:23;6.78;;;2.88;;
25810;SDS011;13645;52.460;13.910;2022-07-23T14:41:50;11.77;;;2.92;;
25810;SDS011;13645;52.460;13.910;2022-07-23T14:44:17;6.53;;;2.92;;
25810;SDS011;13645;52.460;13.910;2022-07-23T14:46:44;6.20;;;2.78;;
25810;SDS011;13645;52.460;13.910;2022-07-23T14:49:11;5.18;;;2.55;;
25810;SDS011;13645;52.460;13.910;2022-07-23T14:51:38;7.55;;;2.45;;
25810;SDS011;13645;52.460;13.910;2022-07-23T14:54:07;5.78;;;2.60;;
25810;SDS011;13645;52.460;13.910;2022-07-23T14:59:33;5.28;;;2.40;;
25810;SDS011;13645;52.460;13.910;2022-07-23T15:02:17;4.22;;;2.40;;
25810;SDS011;13645;52.460;13.910;2022-07-23T15:04:57;6.63;;;2.40;;
25810;SDS011;13645;52.460;13.910;2022-07-23T15:07:48;9.20;;;2.50;;
25810;SDS011;13645;52.460;13.910;2022-07-23T15:10:54;6.28;;;2.90;;
25810;SDS011;13645;52.460;13.910;2022-07-23T15:16:25;7.53;;;3.00;;
25810;SDS011;13645;52.460;13.910;2022-07-23T15:19:00;11.60;;;2.50;;
25810;SDS011;13645;52.460;13.910;2022-07-23T15:24:27;8.32;;;3.00;;
25810;SDS011;13645;52.460;13.910;2022-07-23T15:26:54;5.70;;;3.10;;
25810;SDS011;13645;52.460;13.910;2022-07-23T15:29:21;6.50;;;2.38;;
25810;SDS011;13645;52.460;13.910;2022-07-23T15:31:48;6.38;;;2.50;;
25810;SDS011;13645;52.460;13.910;2022-07-23T15:37:18;5.25;;;2.38;;
25810;SDS011;13645;52.460;13.910;2022-07-23T15:39:45;4.38;;;2.33;;
25810;SDS011;13645;52.460;13.910;2022-07-23T15:42:13;5.18;;;2.50;;
25810;SDS011;13645;52.460;13.910;2022-07-23T15:44:43;2.97;;;2.08;;
25810;SDS011;13645;52.460;13.910;2022-07-23T15:47:25;4.55;;;2.25;;
25810;SDS011;13645;52.460;13.910;2022-07-23T15:52:51;7.20;;;2.03;;
25810;SDS011;13645;52.460;13.910;2022-07-23T15:55:18;5.05;;;2.15;;
25810;SDS011;13645;52.460;13.910;2022-07-23T15:57:51;7.75;;;2.30;;
25810;SDS011;13645;52.460;13.910;2022-07-23T16:00:18;8.20;;;2.28;;
25810;SDS011;13645;52.460;13.910;2022-07-23T16:02:46;6.70;;;1.90;;
25810;SDS011;13645;52.460;13.910;2022-07-23T16:05:13;8.75;;;2.15;;
25810;SDS011;13645;52.460;13.910;2022-07-23T16:07:59;7.18;;;3.30;;
25810;SDS011;13645;52.460;13.910;2022-07-23T16:10:26;6.43;;;3.38;;
25810;SDS011;13645;52.460;13.910;2022-07-23T16:12:53;13.48;;;9.10;;
25810;SDS011;13645;52.460;13.910;2022-07-23T16:15:20;10.32;;;5.32;;
25810;SDS011;13645;52.460;13.910;2022-07-23T16:17:47;10.52;;;3.03;;
25810;SDS011;13645;52.460;13.910;2022-07-23T16:20:14;4.05;;;2.50;;
25810;SDS011;13645;52.460;13.910;2022-07-23T16:22:41;7.18;;;2.45;;
25810;SDS011;13645;52.460;13.910;2022-07-23T16:25:09;11.02;;;2.60;;